sensor_id;sensor_type;location;lat;lon;timestamp;pressure;altitude;pressure_sealevel;temperature;humidity
10706;BME280;5404;42.656;23.336;2023-03-23T00:02:02;94943.66;;;6.24;100.00
10706;BME280;5404;42.656;23.336;2023-03-23T00:04:27;94897.31;;;5.86;100.00
10706;BME280;5404;42.656;23.336;2023-03-23T00:06:54;94945.47;;;6.08;100.00
10706;BME280;5404;42.656;23.336;2023-03-23T00:09:20;94942.03;;;6.03;100.00
10706;BME280;5404;42.656;23.336;2023-03-23T00:11:49;94942.56;;;6.05;100.00
10706;BME280;5404;42.656;23.336;2023-03-23T00:14:16;94943.63;;;6.04;100.00
10706;BME280;5404;42.656;23.336;2023-03-23T00:16:41;94935.16;;;5.92;100.00
10706;BME280;5404;42.656;23.336;2023-03-23T00:19:10;94950.47;;;5.95;100.00
10706;BME280;5404;42.656;23.336;2023-03-23T00:21:40;94943.31;;;5.90;100.00
10706;BME280;5404;42.656;23.336;2023-03-23T00:24:17;94953.41;;;5.93;100.00
10706;BME280;5404;42.656;23.336;2023-03-23T00:26:47;94949.41;;;5.85;100.00
10706;BME280;5404;42.656;23.336;2023-03-23T00:29:21;94948.28;;;5.81;100.00
10706;BME280;5404;42.656;23.336;2023-03-23T00:31:47;94953.56;;;5.76;100.00
10706;BME280;5404;42.656;23.336;2023-03-23T00:34:21;94958.59;;;5.73;100.00
10706;BME280;5404;42.656;23.336;2023-03-23T00:36:54;94959.09;;;5.70;100.00
10706;BME280;5404;42.656;23.336;2023-03-23T00:39:25;94967.03;;;5.70;100.00
10706;BME280;5404;42.656;23.336;2023-03-23T00:41:52;94956.44;;;5.65;100.00
10706;BME280;5404;42.656;23.336;2023-03-23T00:44:18;94964.66;;;5.63;100.00
10706;BME280;5404;42.656;23.336;2023-03-23T00:46:47;94965.16;;;5.60;100.00
10706;BME280;5404;42.656;23.336;2023-03-23T00:49:17;94965.16;;;5.60;100.00
10706;BME280;5404;42.656;23.336;2023-03-23T00:51:43;94970.97;;;5.62;100.00
10706;BME280;5404;42.656;23.336;2023-03-23T00:54:09;94967.81;;;5.65;100.00
10706;BME280;5404;42.656;23.336;2023-03-23T00:56:35;94972.31;;;5.65;100.00
10706;BME280;5404;42.656;23.336;2023-03-23T00:59:01;94968.31;;;5.62;100.00
10706;BME280;5404;42.656;23.336;2023-03-23T01:01:26;94965.72;;;5.67;100.00
10706;BME280;5404;42.656;23.336;2023-03-23T01:03:52;94950.84;;;5.51;100.00
10706;BME280;5404;42.656;23.336;2023-03-23T01:06:30;94980.53;;;5.78;100.00
10706;BME280;5404;42.656;23.336;2023-03-23T01:08:57;94976.38;;;5.82;100.00
10706;BME280;5404;42.656;23.336;2023-03-23T01:11:23;94973.41;;;5.79;100.00
10706;BME280;5404;42.656;23.336;2023-03-23T01:13:49;94976.59;;;5.76;100.00
10706;BME280;5404;42.656;23.336;2023-03-23T01:16:14;94969.13;;;5.68;100.00
10706;BME280;5404;42.656;23.336;2023-03-23T01:18:41;94969.97;;;5.73;100.00
10706;BME280;5404;42.656;23.336;2023-03-23T01:21:10;94963.88;;;5.73;100.00
10706;BME280;5404;42.656;23.336;2023-03-23T01:23:37;94969.41;;;5.71;100.00
10706;BME280;5404;42.656;23.336;2023-03-23T01:26:15;94974.19;;;5.74;100.00
10706;BME280;5404;42.656;23.336;2023-03-23T01:28:41;94968.66;;;5.76;100.00
10706;BME280;5404;42.656;23.336;2023-03-23T01:31:10;94961.03;;;5.84;100.00
10706;BME280;5404;42.656;23.336;2023-03-23T01:33:38;94954.69;;;5.90;100.00
10706;BME280;5404;42.656;23.336;2023-03-23T01:36:05;94959.19;;;5.95;100.00
10706;BME280;5404;42.656;23.336;2023-03-23T01:38:33;94956.31;;;6.02;100.00
10706;BME280;5404;42.656;23.336;2023-03-23T01:41:00;94952.63;;;6.08;100.00
10706;BME280;5404;42.656;23.336;2023-03-23T01:43:26;94952.34;;;6.09;100.00
10706;BME280;5404;42.656;23.336;2023-03-23T01:45:51;94948.13;;;6.08;100.00
10706;BME280;5404;42.656;23.336;2023-03-23T01:48:31;94949.72;;;6.14;100.00
10706;BME280;5404;42.656;23.336;2023-03-23T01:51:06;94942.31;;;6.16;100.00
10706;BME280;5404;42.656;23.336;2023-03-23T01:53:39;94937.56;;;6.18;100.00
10706;BME280;5404;42.656;23.336;2023-03-23T01:56:07;94940.47;;;6.32;100.00
10706;BME280;5404;42.656;23.336;2023-03-23T01:58:37;94941.81;;;6.34;100.00
10706;BME280;5404;42.656;23.336;2023-03-23T02:01:12;94923.53;;;6.23;100.00
10706;BME280;5404;42.656;23.336;2023-03-23T02:03:41;94935.97;;;6.32;100.00
10706;BME280;5404;42.656;23.336;2023-03-23T02:06:08;94926.19;;;6.33;100.00
10706;BME280;5404;42.656;23.336;2023-03-23T02:08:33;94930.16;;;6.35;100.00
10706;BME280;5404;42.656;23.336;2023-03-23T02:11:00;94937.56;;;6.38;100.00
10706;BME280;5404;42.656;23.336;2023-03-23T02:13:27;94941.81;;;6.34;100.00
10706;BME280;5404;42.656;23.336;2023-03-23T02:22:02;94926.97;;;6.28;100.00
10706;BME280;5404;42.656;23.336;2023-03-23T02:30:15;94929.34;;;6.25;100.00
10706;BME280;5404;42.656;23.336;2023-03-23T02:35:35;94932.25;;;6.23;100.00
10706;BME280;5404;42.656;23.336;2023-03-23T02:38:14;94925.66;;;6.21;100.00
10706;BME280;5404;42.656;23.336;2023-03-23T02:40:47;94931.72;;;6.21;100.00
10706;BME280;5404;42.656;23.336;2023-03-23T02:43:17;94934.63;;;6.25;100.00
10706;BME280;5404;42.656;23.336;2023-03-23T02:45:46;94913.47;;;6.15;100.00
10706;BME280;5404;42.656;23.336;2023-03-23T02:48:13;94936.50;;;6.24;100.00
10706;BME280;5404;42.656;23.336;2023-03-23T02:50:44;94939.94;;;6.25;100.00
10706;BME280;5404;42.656;23.336;2023-03-23T02:53:13;94929.34;;;6.10;100.00
10706;BME280;5404;42.656;23.336;2023-03-23T02:55:40;94949.44;;;6.11;100.00
10706;BME280;5404;42.656;23.336;2023-03-23T02:58:08;94925.28;;;5.67;100.00
10706;BME280;5404;42.656;23.336;2023-03-23T03:00:34;94947.44;;;5.66;100.00
10706;BME280;5404;42.656;23.336;2023-03-23T03:03:01;94947.16;;;5.57;100.00
10706;BME280;5404;42.656;23.336;2023-03-23T03:11:05;94973.38;;;5.59;100.00
10706;BME280;5404;42.656;23.336;2023-03-23T03:18:54;94983.16;;;5.68;100.00
10706;BME280;5404;42.656;23.336;2023-03-23T03:21:23;94973.13;;;5.65;100.00
10706;BME280;5404;42.656;23.336;2023-03-23T03:23:50;94984.81;;;5.79;100.00
10706;BME280;5404;42.656;23.336;2023-03-23T03:26:19;94983.72;;;5.80;100.00
10706;BME280;5404;42.656;23.336;2023-03-23T03:28:47;94976.59;;;5.81;100.00
10706;BME280;5404;42.656;23.336;2023-03-23T03:31:18;94989.88;;;5.86;100.00
10706;BME280;5404;42.656;23.336;2023-03-23T03:33:44;94991.44;;;5.87;100.00
10706;BME280;5404;42.656;23.336;2023-03-23T03:36:15;94981.88;;;5.81;100.00
10706;BME280;5404;42.656;23.336;2023-03-23T03:38:49;94972.88;;;5.82;100.00
10706;BME280;5404;42.656;23.336;2023-03-23T03:41:17;94992.00;;;5.99;100.00
10706;BME280;5404;42.656;23.336;2023-03-23T03:43:43;94992.28;;;6.08;100.00
10706;BME280;5404;42.656;23.336;2023-03-23T03:46:08;94996.81;;;6.12;100.00
10706;BME280;5404;42.656;23.336;2023-03-23T03:48:36;94995.19;;;6.11;100.00
10706;BME280;5404;42.656;23.336;2023-03-23T03:51:02;94995.75;;;6.08;100.00
10706;BME280;5404;42.656;23.336;2023-03-23T03:53:28;94982.50;;;5.98;100.00
10706;BME280;5404;42.656;23.336;2023-03-23T03:55:54;94985.41;;;6.02;100.00
10706;BME280;5404;42.656;23.336;2023-03-23T03:58:26;94984.34;;;5.98;100.00
10706;BME280;5404;42.656;23.336;2023-03-23T04:00:59;94982.47;;;5.93;100.00
10706;BME280;5404;42.656;23.336;2023-03-23T04:03:25;94985.63;;;5.90;100.00
10706;BME280;5404;42.656;23.336;2023-03-23T04:05:52;94972.88;;;5.82;100.00
10706;BME280;5404;42.656;23.336;2023-03-23T04:08:18;94983.50;;;5.87;100.00
10706;BME280;5404;42.656;23.336;2023-03-23T04:10:44;94982.47;;;5.88;100.00
10706;BME280;5404;42.656;23.336;2023-03-23T04:13:09;94975.03;;;5.85;100.00
10706;BME280;5404;42.656;23.336;2023-03-23T04:15:35;94977.63;;;5.80;100.00
10706;BME280;5404;42.656;23.336;2023-03-23T04:18:01;94973.94;;;5.76;100.00
10706;BME280;5404;42.656;23.336;2023-03-23T04:20:26;94973.16;;;5.75;100.00
10706;BME280;5404;42.656;23.336;2023-03-23T04:22:53;94975.75;;;5.65;100.00
10706;BME280;5404;42.656;23.336;2023-03-23T04:25:20;94985.25;;;5.61;100.00
10706;BME280;5404;42.656;23.336;2023-03-23T04:27:49;94983.66;;;5.60;100.00
10706;BME280;5404;42.656;23.336;2023-03-23T04:30:22;94941.00;;;5.37;100.00
10706;BME280;5404;42.656;23.336;2023-03-23T04:32:49;94982.88;;;5.65;100.00
10706;BME280;5404;42.656;23.336;2023-03-23T04:35:16;94974.41;;;5.63;100.00
10706;BME280;5404;42.656;23.336;2023-03-23T04:37:42;94985.81;;;5.73;100.00
10706;BME280;5404;42.656;23.336;2023-03-23T04:40:10;94975.78;;;5.70;100.00
10706;BME280;5404;42.656;23.336;2023-03-23T04:42:40;94985.25;;;5.66;100.00
10706;BME280;5404;42.656;23.336;2023-03-23T04:45:07;94976.31;;;5.72;100.00
10706;BME280;5404;42.656;23.336;2023-03-23T04:47:35;94983.19;;;5.73;100.00
10706;BME280;5404;42.656;23.336;2023-03-23T04:50:09;94973.88;;;5.66;100.00
10706;BME280;5404;42.656;23.336;2023-03-23T04:52:36;94991.09;;;5.73;100.00
10706;BME280;5404;42.656;23.336;2023-03-23T04:55:04;94987.66;;;5.68;100.00
10706;BME280;5404;42.656;23.336;2023-03-23T04:57:31;94980.50;;;5.63;100.00
10706;BME280;5404;42.656;23.336;2023-03-23T04:59:57;95000.63;;;5.74;100.00
10706;BME280;5404;42.656;23.336;2023-03-23T05:02:22;95012.28;;;5.78;100.00
10706;BME280;5404;42.656;23.336;2023-03-23T05:04:48;94995.94;;;5.86;100.00
10706;BME280;5404;42.656;23.336;2023-03-23T05:07:14;95003.91;;;5.92;100.00
10706;BME280;5404;42.656;23.336;2023-03-23T05:09:40;95006.78;;;5.95;100.00
10706;BME280;5404;42.656;23.336;2023-03-23T05:12:06;94992.78;;;5.95;100.00
10706;BME280;5404;42.656;23.336;2023-03-23T05:14:32;95004.97;;;6.11;100.00
10706;BME280;5404;42.656;23.336;2023-03-23T05:16:57;95012.16;;;6.15;100.00
10706;BME280;5404;42.656;23.336;2023-03-23T05:19:23;94999.97;;;6.09;100.00
10706;BME280;5404;42.656;23.336;2023-03-23T05:21:48;95021.69;;;6.26;100.00
10706;BME280;5404;42.656;23.336;2023-03-23T05:24:14;95007.41;;;6.32;100.00
10706;BME280;5404;42.656;23.336;2023-03-23T05:26:40;95012.72;;;6.37;100.00
10706;BME280;5404;42.656;23.336;2023-03-23T05:29:06;95031.25;;;6.42;100.00
10706;BME280;5404;42.656;23.336;2023-03-23T05:31:31;95020.13;;;6.50;100.00
10706;BME280;5404;42.656;23.336;2023-03-23T05:33:57;95030.47;;;6.57;100.00
10706;BME280;5404;42.656;23.336;2023-03-23T05:36:22;95036.00;;;6.55;100.00
10706;BME280;5404;42.656;23.336;2023-03-23T05:38:50;95033.13;;;6.57;100.00
10706;BME280;5404;42.656;23.336;2023-03-23T05:41:16;95030.22;;;6.68;100.00
10706;BME280;5404;42.656;23.336;2023-03-23T05:43:41;95025.47;;;6.70;100.00
10706;BME280;5404;42.656;23.336;2023-03-23T05:46:07;95032.06;;;6.83;100.00
10706;BME280;5404;42.656;23.336;2023-03-23T05:48:36;95034.72;;;6.98;100.00
10706;BME280;5404;42.656;23.336;2023-03-23T05:51:03;95040.00;;;7.08;100.00
10706;BME280;5404;42.656;23.336;2023-03-23T05:53:29;95003.47;;;6.90;100.00
10706;BME280;5404;42.656;23.336;2023-03-23T05:56:02;95048.72;;;7.34;100.00
10706;BME280;5404;42.656;23.336;2023-03-23T05:58:29;95030.16;;;7.39;100.00
10706;BME280;5404;42.656;23.336;2023-03-23T06:00:54;95047.34;;;7.61;100.00
10706;BME280;5404;42.656;23.336;2023-03-23T06:03:20;95038.03;;;7.74;100.00
10706;BME280;5404;42.656;23.336;2023-03-23T06:05:46;95036.94;;;7.80;100.00
10706;BME280;5404;42.656;23.336;2023-03-23T06:08:11;95037.47;;;7.82;100.00
10706;BME280;5404;42.656;23.336;2023-03-23T06:10:37;95043.50;;;7.97;100.00
10706;BME280;5404;42.656;23.336;2023-03-23T06:13:04;95032.28;;;8.10;100.00
10706;BME280;5404;42.656;23.336;2023-03-23T06:15:30;95014.78;;;8.09;100.00
10706;BME280;5404;42.656;23.336;2023-03-23T06:18:01;95037.28;;;8.17;100.00
10706;BME280;5404;42.656;23.336;2023-03-23T06:20:28;95029.91;;;8.09;100.00
10706;BME280;5404;42.656;23.336;2023-03-23T06:22:54;95015.13;;;7.98;100.00
10706;BME280;5404;42.656;23.336;2023-03-23T06:25:19;95022.81;;;7.99;100.00
10706;BME280;5404;42.656;23.336;2023-03-23T06:27:45;95012.72;;;7.96;100.00
10706;BME280;5404;42.656;23.336;2023-03-23T06:30:12;95012.69;;;8.06;100.00
10706;BME280;5404;42.656;23.336;2023-03-23T06:32:40;95020.31;;;8.18;100.00
10706;BME280;5404;42.656;23.336;2023-03-23T06:35:08;95025.03;;;8.31;100.00
10706;BME280;5404;42.656;23.336;2023-03-23T06:37:35;95021.03;;;8.39;100.00
10706;BME280;5404;42.656;23.336;2023-03-23T06:40:02;95016.16;;;8.51;100.00
10706;BME280;5404;42.656;23.336;2023-03-23T06:42:30;94999.25;;;8.37;100.00
10706;BME280;5404;42.656;23.336;2023-03-23T06:44:55;95007.91;;;8.52;100.00
10706;BME280;5404;42.656;23.336;2023-03-23T06:47:23;95013.78;;;8.49;100.00
10706;BME280;5404;42.656;23.336;2023-03-23T06:49:49;95020.91;;;8.54;100.00
10706;BME280;5404;42.656;23.336;2023-03-23T06:52:14;95022.28;;;8.51;100.00
10706;BME280;5404;42.656;23.336;2023-03-23T06:54:40;95029.41;;;8.56;100.00
10706;BME280;5404;42.656;23.336;2023-03-23T06:57:05;95029.06;;;8.67;100.00
10706;BME280;5404;42.656;23.336;2023-03-23T06:59:31;95031.16;;;8.75;100.00
10706;BME280;5404;42.656;23.336;2023-03-23T07:01:56;95022.91;;;8.77;100.00
10706;BME280;5404;42.656;23.336;2023-03-23T07:04:23;95026.28;;;8.82;100.00
10706;BME280;5404;42.656;23.336;2023-03-23T07:06:48;95022.00;;;8.86;100.00
10706;BME280;5404;42.656;23.336;2023-03-23T07:09:14;95023.56;;;8.92;100.00
10706;BME280;5404;42.656;23.336;2023-03-23T07:11:40;95024.56;;;8.96;100.00
10706;BME280;5404;42.656;23.336;2023-03-23T07:14:06;95023.47;;;9.02;100.00
10706;BME280;5404;42.656;23.336;2023-03-23T07:16:32;95028.13;;;9.15;100.00
10706;BME280;5404;42.656;23.336;2023-03-23T07:18:58;95019.28;;;9.25;100.00
10706;BME280;5404;42.656;23.336;2023-03-23T07:21:24;95014.16;;;9.33;100.00
10706;BME280;5404;42.656;23.336;2023-03-23T07:23:50;95018.81;;;9.47;100.00
10706;BME280;5404;42.656;23.336;2023-03-23T07:26:15;95015.75;;;9.58;100.00
10706;BME280;5404;42.656;23.336;2023-03-23T07:28:41;95013.53;;;9.65;100.00
10706;BME280;5404;42.656;23.336;2023-03-23T07:31:07;95010.50;;;9.77;100.00
10706;BME280;5404;42.656;23.336;2023-03-23T07:33:35;94994.94;;;9.89;100.00
10706;BME280;5404;42.656;23.336;2023-03-23T07:36:01;94998.75;;;10.01;100.00
10706;BME280;5404;42.656;23.336;2023-03-23T07:38:28;95000.25;;;10.12;100.00
10706;BME280;5404;42.656;23.336;2023-03-23T07:40:54;95012.28;;;10.28;100.00
10706;BME280;5404;42.656;23.336;2023-03-23T07:43:19;95009.25;;;10.35;100.00
10706;BME280;5404;42.656;23.336;2023-03-23T07:45:46;94997.44;;;10.41;100.00
10706;BME280;5404;42.656;23.336;2023-03-23T07:48:11;94997.16;;;10.61;100.00
10706;BME280;5404;42.656;23.336;2023-03-23T07:50:37;94993.34;;;10.67;100.00
10706;BME280;5404;42.656;23.336;2023-03-23T07:53:03;94993.88;;;10.83;100.00
10706;BME280;5404;42.656;23.336;2023-03-23T07:55:29;94986.59;;;10.88;100.00
10706;BME280;5404;42.656;23.336;2023-03-23T07:57:54;94987.03;;;10.95;100.00
10706;BME280;5404;42.656;23.336;2023-03-23T08:00:22;94989.00;;;11.03;100.00
10706;BME280;5404;42.656;23.336;2023-03-23T08:02:51;94953.16;;;10.96;100.00
10706;BME280;5404;42.656;23.336;2023-03-23T08:05:18;94986.69;;;11.29;100.00
10706;BME280;5404;42.656;23.336;2023-03-23T08:07:44;94984.25;;;11.32;100.00
10706;BME280;5404;42.656;23.336;2023-03-23T08:10:10;94963.00;;;11.27;100.00
10706;BME280;5404;42.656;23.336;2023-03-23T08:12:40;94983.97;;;11.47;100.00
10706;BME280;5404;42.656;23.336;2023-03-23T08:15:10;94982.78;;;11.53;100.00
10706;BME280;5404;42.656;23.336;2023-03-23T08:17:42;94977.66;;;11.57;100.00
10706;BME280;5404;42.656;23.336;2023-03-23T08:20:10;94978.56;;;11.66;100.00
10706;BME280;5404;42.656;23.336;2023-03-23T08:22:39;94972.34;;;11.70;100.00
10706;BME280;5404;42.656;23.336;2023-03-23T08:25:07;94972.53;;;11.88;100.00
10706;BME280;5404;42.656;23.336;2023-03-23T08:27:33;94972.34;;;11.98;100.00
10706;BME280;5404;42.656;23.336;2023-03-23T08:29:59;94958.06;;;12.16;100.00
10706;BME280;5404;42.656;23.336;2023-03-23T08:32:25;94962.84;;;12.41;100.00
10706;BME280;5404;42.656;23.336;2023-03-23T08:34:51;94946.34;;;12.61;100.00
10706;BME280;5404;42.656;23.336;2023-03-23T08:37:17;94947.44;;;12.82;100.00
10706;BME280;5404;42.656;23.336;2023-03-23T08:39:42;94929.47;;;12.96;100.00
10706;BME280;5404;42.656;23.336;2023-03-23T08:42:09;94932.00;;;13.01;100.00
10706;BME280;5404;42.656;23.336;2023-03-23T08:44:35;94944.97;;;13.08;100.00
10706;BME280;5404;42.656;23.336;2023-03-23T08:47:01;94933.06;;;13.14;100.00
10706;BME280;5404;42.656;23.336;2023-03-23T08:49:28;94927.13;;;13.25;100.00
10706;BME280;5404;42.656;23.336;2023-03-23T08:51:56;94924.19;;;13.35;100.00
10706;BME280;5404;42.656;23.336;2023-03-23T08:54:21;94914.44;;;13.39;100.00
10706;BME280;5404;42.656;23.336;2023-03-23T08:56:47;94910.19;;;13.38;100.00
10706;BME280;5404;42.656;23.336;2023-03-23T08:59:12;94913.56;;;13.61;100.00
10706;BME280;5404;42.656;23.336;2023-03-23T09:01:38;94914.09;;;13.80;100.00
10706;BME280;5404;42.656;23.336;2023-03-23T09:04:03;94918.41;;;13.89;100.00
10706;BME280;5404;42.656;23.336;2023-03-23T09:06:29;94913.31;;;13.88;100.00
10706;BME280;5404;42.656;23.336;2023-03-23T09:08:56;94921.34;;;13.79;100.00
10706;BME280;5404;42.656;23.336;2023-03-23T09:11:22;94923.78;;;14.07;100.00
10706;BME280;5404;42.656;23.336;2023-03-23T09:13:47;94923.63;;;15.14;100.00
10706;BME280;5404;42.656;23.336;2023-03-23T09:16:14;94905.25;;;16.91;100.00
10706;BME280;5404;42.656;23.336;2023-03-23T09:18:40;94912.56;;;18.68;94.11
10706;BME280;5404;42.656;23.336;2023-03-23T09:21:05;94834.94;;;19.35;80.25
10706;BME280;5404;42.656;23.336;2023-03-23T09:23:31;94904.22;;;21.10;76.54
10706;BME280;5404;42.656;23.336;2023-03-23T09:25:59;94907.50;;;22.06;65.23
10706;BME280;5404;42.656;23.336;2023-03-23T09:28:25;94903.09;;;21.75;64.59
10706;BME280;5404;42.656;23.336;2023-03-23T09:30:51;94910.59;;;22.30;63.47
10706;BME280;5404;42.656;23.336;2023-03-23T09:33:17;94904.69;;;22.77;58.53
10706;BME280;5404;42.656;23.336;2023-03-23T09:35:43;94900.25;;;22.95;54.78
10706;BME280;5404;42.656;23.336;2023-03-23T09:38:09;94897.41;;;22.84;52.58
10706;BME280;5404;42.656;23.336;2023-03-23T09:40:49;94902.38;;;22.79;56.50
10706;BME280;5404;42.656;23.336;2023-03-23T09:48:33;94912.41;;;22.23;51.95
10706;BME280;5404;42.656;23.336;2023-03-23T09:54:19;94910.31;;;20.68;62.10
10706;BME280;5404;42.656;23.336;2023-03-23T09:56:47;94900.59;;;19.67;71.58
10706;BME280;5404;42.656;23.336;2023-03-23T10:01:50;94897.13;;;19.23;80.20
10706;BME280;5404;42.656;23.336;2023-03-23T10:04:37;94895.78;;;19.92;75.60
10706;BME280;5404;42.656;23.336;2023-03-23T10:07:16;94892.59;;;20.36;72.96
10706;BME280;5404;42.656;23.336;2023-03-23T10:09:45;94895.00;;;20.95;70.91
10706;BME280;5404;42.656;23.336;2023-03-23T10:15:20;94885.13;;;21.89;58.76
10706;BME280;5404;42.656;23.336;2023-03-23T10:23:24;94883.22;;;22.42;57.34
10706;BME280;5404;42.656;23.336;2023-03-23T10:31:52;94863.38;;;22.64;52.98
10706;BME280;5404;42.656;23.336;2023-03-23T10:35:00;94868.66;;;22.28;51.76
10706;BME280;5404;42.656;23.336;2023-03-23T10:37:26;94878.13;;;22.37;54.93
10706;BME280;5404;42.656;23.336;2023-03-23T10:39:55;94871.94;;;22.40;54.94
10706;BME280;5404;42.656;23.336;2023-03-23T10:42:35;94873.66;;;22.52;54.62
10706;BME280;5404;42.656;23.336;2023-03-23T10:45:10;94874.19;;;22.35;54.18
10706;BME280;5404;42.656;23.336;2023-03-23T10:47:39;94882.06;;;22.17;52.34
10706;BME280;5404;42.656;23.336;2023-03-23T10:50:14;94871.81;;;21.58;54.66
10706;BME280;5404;42.656;23.336;2023-03-23T10:52:42;94869.78;;;21.33;58.07
10706;BME280;5404;42.656;23.336;2023-03-23T10:57:40;94872.09;;;21.31;59.69
10706;BME280;5404;42.656;23.336;2023-03-23T11:02:44;94866.63;;;21.95;55.75
10706;BME280;5404;42.656;23.336;2023-03-23T11:05:19;94867.91;;;22.31;53.41
10706;BME280;5404;42.656;23.336;2023-03-23T11:07:59;94862.13;;;22.88;52.37
10706;BME280;5404;42.656;23.336;2023-03-23T11:10:36;94861.50;;;23.01;49.56
10706;BME280;5404;42.656;23.336;2023-03-23T11:13:02;94860.63;;;22.61;53.39
10706;BME280;5404;42.656;23.336;2023-03-23T11:15:33;94851.63;;;22.86;49.68
10706;BME280;5404;42.656;23.336;2023-03-23T11:18:04;94862.13;;;22.58;50.16
10706;BME280;5404;42.656;23.336;2023-03-23T11:20:35;94840.06;;;21.81;52.01
10706;BME280;5404;42.656;23.336;2023-03-23T11:23:31;94849.53;;;21.91;53.05
10706;BME280;5404;42.656;23.336;2023-03-23T11:28:48;94839.78;;;21.00;53.70
10706;BME280;5404;42.656;23.336;2023-03-23T11:31:17;94799.59;;;20.63;56.04
10706;BME280;5404;42.656;23.336;2023-03-23T11:36:40;94834.75;;;20.25;59.27
10706;BME280;5404;42.656;23.336;2023-03-23T11:41:56;94822.22;;;20.55;62.02
10706;BME280;5404;42.656;23.336;2023-03-23T11:44:23;94816.59;;;20.64;58.89
10706;BME280;5404;42.656;23.336;2023-03-23T11:47:32;94835.69;;;19.98;61.19
10706;BME280;5404;42.656;23.336;2023-03-23T11:50:14;94821.91;;;19.25;63.85
10706;BME280;5404;42.656;23.336;2023-03-23T11:55:28;94775.13;;;18.07;71.66
10706;BME280;5404;42.656;23.336;2023-03-23T11:57:55;94819.75;;;18.44;71.52
10706;BME280;5404;42.656;23.336;2023-03-23T12:00:25;94815.88;;;18.57;70.98
10706;BME280;5404;42.656;23.336;2023-03-23T12:03:26;94812.66;;;18.52;74.20
10706;BME280;5404;42.656;23.336;2023-03-23T12:06:08;94813.13;;;18.30;73.84
10706;BME280;5404;42.656;23.336;2023-03-23T12:17:47;94796.31;;;17.81;80.50
10706;BME280;5404;42.656;23.336;2023-03-23T12:23:02;94798.53;;;17.79;83.07
10706;BME280;5404;42.656;23.336;2023-03-23T12:30:58;94798.91;;;17.54;84.43
10706;BME280;5404;42.656;23.336;2023-03-23T12:33:56;94797.97;;;17.25;83.55
10706;BME280;5404;42.656;23.336;2023-03-23T12:44:43;94796.50;;;17.16;83.87
10706;BME280;5404;42.656;23.336;2023-03-23T12:47:40;94791.41;;;17.47;86.62
10706;BME280;5404;42.656;23.336;2023-03-23T12:50:30;94800.81;;;17.65;85.82
10706;BME280;5404;42.656;23.336;2023-03-23T12:55:45;94788.00;;;17.26;85.06
10706;BME280;5404;42.656;23.336;2023-03-23T12:58:23;94786.09;;;17.14;87.45
10706;BME280;5404;42.656;23.336;2023-03-23T13:09:04;94774.59;;;17.90;82.04
10706;BME280;5404;42.656;23.336;2023-03-23T13:11:36;94775.13;;;18.07;82.95
10706;BME280;5404;42.656;23.336;2023-03-23T13:22:47;94759.81;;;18.39;76.59
10706;BME280;5404;42.656;23.336;2023-03-23T13:28:04;94758.25;;;18.10;80.96
10706;BME280;5404;42.656;23.336;2023-03-23T13:30:30;94760.75;;;18.03;82.42
10706;BME280;5404;42.656;23.336;2023-03-23T13:33:06;94716.75;;;17.87;79.57
10706;BME280;5404;42.656;23.336;2023-03-23T13:35:37;94759.31;;;18.21;81.02
10706;BME280;5404;42.656;23.336;2023-03-23T13:38:33;94756.94;;;18.32;80.92
10706;BME280;5404;42.656;23.336;2023-03-23T13:40:59;94751.69;;;18.51;82.52
10706;BME280;5404;42.656;23.336;2023-03-23T13:43:34;94760.88;;;18.62;75.91
10706;BME280;5404;42.656;23.336;2023-03-23T13:46:24;94754.53;;;18.86;76.74
10706;BME280;5404;42.656;23.336;2023-03-23T13:57:00;94668.59;;;19.53;67.27
10706;BME280;5404;42.656;23.336;2023-03-23T14:01:57;94745.75;;;19.20;72.19
10706;BME280;5404;42.656;23.336;2023-03-23T14:04:42;94741.41;;;19.15;72.78
10706;BME280;5404;42.656;23.336;2023-03-23T14:07:11;94742.72;;;19.37;73.20
10706;BME280;5404;42.656;23.336;2023-03-23T14:09:40;94735.50;;;19.41;66.73
10706;BME280;5404;42.656;23.336;2023-03-23T14:12:28;94744.91;;;19.16;69.51
10706;BME280;5404;42.656;23.336;2023-03-23T14:15:00;94735.38;;;19.53;68.36
10706;BME280;5404;42.656;23.336;2023-03-23T14:17:32;94735.38;;;19.53;70.21
10706;BME280;5404;42.656;23.336;2023-03-23T14:20:01;94725.97;;;19.47;68.77
10706;BME280;5404;42.656;23.336;2023-03-23T14:22:32;94720.72;;;19.54;68.84
10706;BME280;5404;42.656;23.336;2023-03-23T14:25:09;94727.91;;;19.46;68.83
10706;BME280;5404;42.656;23.336;2023-03-23T14:27:35;94724.50;;;19.18;72.33
10706;BME280;5404;42.656;23.336;2023-03-23T14:30:04;94726.75;;;19.01;74.76
10706;BME280;5404;42.656;23.336;2023-03-23T14:32:32;94729.13;;;19.02;73.98
10706;BME280;5404;42.656;23.336;2023-03-23T14:35:00;94724.50;;;19.03;75.00
10706;BME280;5404;42.656;23.336;2023-03-23T14:37:31;94727.19;;;19.18;75.00
10706;BME280;5404;42.656;23.336;2023-03-23T14:39:58;94736.72;;;19.12;76.37
10706;BME280;5404;42.656;23.336;2023-03-23T14:42:32;94708.03;;;18.92;74.31
10706;BME280;5404;42.656;23.336;2023-03-23T14:44:59;94722.22;;;18.74;76.26
10706;BME280;5404;42.656;23.336;2023-03-23T14:47:30;94726.94;;;18.77;76.84
10706;BME280;5404;42.656;23.336;2023-03-23T14:50:01;94722.94;;;18.71;78.11
10706;BME280;5404;42.656;23.336;2023-03-23T14:52:33;94735.88;;;18.49;77.86
10706;BME280;5404;42.656;23.336;2023-03-23T14:55:14;94733.03;;;18.74;79.19
10706;BME280;5404;42.656;23.336;2023-03-23T14:57:41;94700.72;;;18.62;78.84
10706;BME280;5404;42.656;23.336;2023-03-23T15:00:15;94726.16;;;18.33;82.06
10706;BME280;5404;42.656;23.336;2023-03-23T15:02:43;94721.72;;;17.73;84.64
10706;BME280;5404;42.656;23.336;2023-03-23T15:05:11;94721.81;;;17.13;90.67
10706;BME280;5404;42.656;23.336;2023-03-23T15:07:41;94699.69;;;17.07;93.34
10706;BME280;5404;42.656;23.336;2023-03-23T15:10:09;94711.22;;;17.56;92.46
10706;BME280;5404;42.656;23.336;2023-03-23T15:12:45;94709.41;;;17.60;89.68
10706;BME280;5404;42.656;23.336;2023-03-23T15:15:21;94680.47;;;17.57;89.28
10706;BME280;5404;42.656;23.336;2023-03-23T15:17:47;94710.63;;;17.75;88.60